createdAt,value
2022-10-11T00:00:58.672Z,1014.56
2022-10-11T00:01:58.597Z,1014.58
2022-10-11T00:02:58.614Z,1014.66
2022-10-11T00:03:58.629Z,1014.65
2022-10-11T00:04:58.641Z,1014.66
2022-10-11T00:05:58.726Z,1014.69
2022-10-11T00:06:58.676Z,1014.72
2022-10-11T00:07:58.685Z,1014.73
2022-10-11T00:08:58.703Z,1014.75
2022-10-11T00:09:58.718Z,1014.77
2022-10-11T00:10:58.732Z,1014.76
2022-10-11T00:11:58.748Z,1014.74
2022-10-11T00:12:58.762Z,1014.78
2022-10-11T00:13:58.779Z,1014.81
2022-10-11T00:14:58.795Z,1014.86
2022-10-11T00:15:58.807Z,1014.87
2022-10-11T00:16:58.823Z,1014.89
2022-10-11T00:18:02.123Z,1014.92
2022-10-11T00:18:58.859Z,1014.95
2022-10-11T00:19:58.867Z,1014.95
2022-10-11T00:20:58.886Z,1014.98
2022-10-11T00:21:58.897Z,1015.00
2022-10-11T00:22:58.913Z,1015.03
2022-10-11T00:23:58.928Z,1015.02
2022-10-11T00:24:58.942Z,1014.97
2022-10-11T00:25:58.958Z,1015.04
2022-10-11T00:26:58.973Z,1015.06
2022-10-11T00:27:58.988Z,1015.06
2022-10-11T00:28:59.004Z,1015.06
2022-10-11T00:29:59.018Z,1015.10
2022-10-11T00:30:59.036Z,1015.12
2022-10-11T00:31:59.046Z,1015.13
2022-10-11T00:32:59.062Z,1015.08
2022-10-11T00:33:59.075Z,1015.13
2022-10-11T00:34:59.090Z,1015.21
2022-10-11T00:35:59.104Z,1015.20
2022-10-11T00:36:59.119Z,1015.18
2022-10-11T00:37:59.139Z,1015.18
2022-10-11T00:38:59.150Z,1015.22
2022-10-11T00:39:59.182Z,1015.24
2022-10-11T00:40:59.188Z,1015.21
2022-10-11T00:41:59.193Z,1015.28
2022-10-11T00:42:59.207Z,1015.26
2022-10-11T00:43:59.235Z,1015.28
2022-10-11T00:44:59.264Z,1015.29
2022-10-11T00:45:59.253Z,1015.29
2022-10-11T00:46:59.266Z,1015.31
2022-10-11T00:47:59.281Z,1015.31
2022-10-11T00:48:59.294Z,1015.37
2022-10-11T00:49:59.322Z,1015.36
2022-10-11T00:50:59.325Z,1015.41
2022-10-11T00:51:59.338Z,1015.38
2022-10-11T00:52:59.352Z,1015.37
2022-10-11T00:53:59.368Z,1015.38
2022-10-11T00:54:59.385Z,1015.40
2022-10-11T00:55:59.397Z,1015.44
2022-10-11T00:56:59.412Z,1015.43
2022-10-11T00:57:59.425Z,1015.44
2022-10-11T00:58:59.439Z,1015.43
2022-10-11T00:59:59.455Z,1015.51
2022-10-11T01:00:59.499Z,1015.42
2022-10-11T01:01:59.483Z,1015.46
2022-10-11T01:02:59.500Z,1015.48
2022-10-11T01:03:59.512Z,1015.48
2022-10-11T01:05:25.359Z,1015.49
2022-10-11T01:05:59.547Z,1015.49
2022-10-11T01:06:59.556Z,1015.50
2022-10-11T01:07:59.570Z,1015.49
2022-10-11T01:08:59.584Z,1015.52
2022-10-11T01:09:59.597Z,1015.53
2022-10-11T01:10:59.611Z,1015.57
2022-10-11T01:11:59.628Z,1015.56
2022-10-11T01:12:59.648Z,1015.54
2022-10-11T01:13:59.653Z,1015.56
2022-10-11T01:14:59.672Z,1015.55
2022-10-11T01:15:59.693Z,1015.60
2022-10-11T01:16:59.697Z,1015.60
2022-10-11T01:17:59.711Z,1015.60
2022-10-11T01:18:59.726Z,1015.66
2022-10-11T01:19:59.738Z,1015.72
2022-10-11T01:20:59.752Z,1015.65
2022-10-11T01:21:59.769Z,1015.69
2022-10-11T01:22:59.780Z,1015.70
2022-10-11T01:24:01.770Z,1015.73
2022-10-11T01:24:59.810Z,1015.76
2022-10-11T01:25:59.823Z,1015.73
2022-10-11T01:26:59.838Z,1015.75
2022-10-11T01:27:59.854Z,1015.77
2022-10-11T01:28:59.865Z,1015.76
2022-10-11T01:29:59.879Z,1015.82
2022-10-11T01:30:59.893Z,1015.78
2022-10-11T01:31:59.909Z,1015.77
2022-10-11T01:32:59.921Z,1015.77
2022-10-11T01:33:59.939Z,1015.81
2022-10-11T01:34:59.947Z,1015.83
2022-10-11T01:35:59.964Z,1015.79
2022-10-11T01:36:59.979Z,1015.84
2022-10-11T01:37:59.994Z,1015.82
2022-10-11T01:39:00.002Z,1015.84
2022-10-11T01:40:00.020Z,1015.88
2022-10-11T01:41:00.039Z,1015.90
2022-10-11T01:42:00.049Z,1015.85
2022-10-11T01:43:00.060Z,1015.89
2022-10-11T01:44:00.093Z,1015.87
2022-10-11T01:45:00.094Z,1015.88
2022-10-11T01:46:00.101Z,1015.92
2022-10-11T01:47:00.115Z,1015.87
2022-10-11T01:48:00.140Z,1015.86
2022-10-11T01:49:00.144Z,1015.93
2022-10-11T01:50:00.158Z,1015.89
2022-10-11T01:51:00.167Z,1015.93
2022-10-11T01:52:00.184Z,1015.90
2022-10-11T01:53:00.197Z,1015.90
2022-10-11T01:54:00.210Z,1015.89
2022-10-11T01:55:11.010Z,1015.91
2022-10-11T01:56:00.238Z,1015.90
2022-10-11T01:57:00.250Z,1015.92
2022-10-11T01:58:00.265Z,1015.91
2022-10-11T01:59:00.281Z,1015.91
2022-10-11T02:00:00.296Z,1015.91
2022-10-11T02:01:00.343Z,1015.99
2022-10-11T02:02:00.320Z,1016.00
2022-10-11T02:03:00.334Z,1016.01
2022-10-11T02:04:00.348Z,1015.96
2022-10-11T02:05:00.362Z,1016.02
2022-10-11T02:06:00.374Z,1015.99
2022-10-11T02:07:00.389Z,1016.01
2022-10-11T02:08:00.402Z,1016.03
2022-10-11T02:09:03.281Z,1016.08
2022-10-11T02:10:00.428Z,1016.01
2022-10-11T02:11:00.443Z,1016.07
2022-10-11T02:12:00.455Z,1016.07
2022-10-11T02:13:00.468Z,1016.09
2022-10-11T02:14:00.481Z,1016.09
2022-10-11T02:15:00.494Z,1016.09
2022-10-11T02:16:00.514Z,1016.12
2022-10-11T02:17:00.521Z,1016.16
2022-10-11T02:18:00.537Z,1016.18
2022-10-11T02:19:00.549Z,1016.17
2022-10-11T02:20:00.563Z,1016.18
2022-10-11T02:21:00.576Z,1016.16
2022-10-11T02:22:00.590Z,1016.14
2022-10-11T02:23:00.602Z,1016.16
2022-10-11T02:24:00.620Z,1016.18
2022-10-11T02:25:00.629Z,1016.21
2022-10-11T02:26:00.647Z,1016.22
2022-10-11T02:27:00.657Z,1016.19
2022-10-11T02:28:00.669Z,1016.22
2022-10-11T02:29:00.681Z,1016.20
2022-10-11T02:30:00.697Z,1016.24
2022-10-11T02:31:00.709Z,1016.22
2022-10-11T02:32:00.722Z,1016.26
2022-10-11T02:33:00.736Z,1016.21
2022-10-11T02:34:00.748Z,1016.20
2022-10-11T02:35:00.763Z,1016.26
2022-10-11T02:36:00.810Z,1016.23
2022-10-11T02:37:00.788Z,1016.22
2022-10-11T02:38:00.808Z,1016.24
2022-10-11T02:39:00.817Z,1016.27
2022-10-11T02:40:00.828Z,1016.29
2022-10-11T02:41:00.844Z,1016.27
2022-10-11T02:42:00.854Z,1016.29
2022-10-11T02:43:00.868Z,1016.29
2022-10-11T02:44:00.883Z,1016.32
2022-10-11T02:45:00.893Z,1016.33
2022-10-11T02:46:00.946Z,1016.30
2022-10-11T02:47:00.922Z,1016.33
2022-10-11T02:48:00.939Z,1016.32
2022-10-11T02:49:00.951Z,1016.30
2022-10-11T02:50:00.964Z,1016.32
2022-10-11T02:51:00.975Z,1016.33
2022-10-11T02:52:00.987Z,1016.29
2022-10-11T02:53:01.000Z,1016.37
2022-10-11T02:54:01.017Z,1016.36
2022-10-11T02:55:01.028Z,1016.35
2022-10-11T02:56:01.167Z,1016.41
2022-10-11T02:57:01.053Z,1016.41
2022-10-11T02:58:01.076Z,1016.40
2022-10-11T02:59:01.083Z,1016.38
2022-10-11T03:00:01.093Z,1016.44
2022-10-11T03:01:01.106Z,1016.50
2022-10-11T03:02:01.221Z,1016.44
2022-10-11T03:03:01.146Z,1016.46
2022-10-11T03:04:01.152Z,1016.45
2022-10-11T03:05:01.163Z,1016.51
2022-10-11T03:06:01.397Z,1016.49
2022-10-11T03:07:01.184Z,1016.53
2022-10-11T03:08:01.196Z,1016.57
2022-10-11T03:09:01.221Z,1016.54
2022-10-11T03:10:01.228Z,1016.59
2022-10-11T03:11:01.235Z,1016.60
2022-10-11T03:12:01.249Z,1016.63
2022-10-11T03:13:01.262Z,1016.62
2022-10-11T03:14:01.275Z,1016.64
2022-10-11T03:15:01.289Z,1016.66
2022-10-11T03:16:03.558Z,1016.70
2022-10-11T03:17:23.801Z,1016.71
2022-10-11T03:18:01.329Z,1016.71
2022-10-11T03:19:01.342Z,1016.77
2022-10-11T03:20:01.353Z,1016.74
2022-10-11T03:21:01.366Z,1016.77
2022-10-11T03:22:01.380Z,1016.82
2022-10-11T03:23:01.393Z,1016.80
2022-10-11T03:24:01.406Z,1016.80
2022-10-11T03:25:04.320Z,1016.82
2022-10-11T03:26:01.615Z,1016.83
2022-10-11T03:27:01.449Z,1016.85
2022-10-11T03:28:01.459Z,1016.89
2022-10-11T03:29:01.472Z,1016.87
2022-10-11T03:30:01.506Z,1016.92
2022-10-11T03:31:01.497Z,1016.88
2022-10-11T03:32:01.510Z,1016.91
2022-10-11T03:33:01.522Z,1016.91
2022-10-11T03:34:01.554Z,1016.90
2022-10-11T03:35:01.562Z,1016.90
2022-10-11T03:36:01.715Z,1016.94
2022-10-11T03:37:01.576Z,1016.93
2022-10-11T03:38:01.590Z,1016.90
2022-10-11T03:39:01.601Z,1016.95
2022-10-11T03:40:01.616Z,1016.92
2022-10-11T03:41:01.627Z,1016.91
2022-10-11T03:42:01.641Z,1016.92
2022-10-11T03:43:01.653Z,1016.95
2022-10-11T03:44:01.667Z,1016.97
2022-10-11T03:45:01.679Z,1016.98
2022-10-11T03:46:02.026Z,1016.99
2022-10-11T03:47:01.708Z,1016.99
2022-10-11T03:48:01.720Z,1016.98
2022-10-11T03:49:01.731Z,1017.02
2022-10-11T03:50:01.749Z,1017.05
2022-10-11T03:51:01.759Z,1017.06
2022-10-11T03:52:01.771Z,1017.04
2022-10-11T03:53:01.784Z,1017.04
2022-10-11T03:54:01.798Z,1017.07
2022-10-11T03:55:01.813Z,1017.06
2022-10-11T03:56:07.316Z,1017.07
2022-10-11T03:57:01.837Z,1017.11
2022-10-11T03:58:01.850Z,1017.08
2022-10-11T03:59:01.863Z,1017.13
2022-10-11T04:00:01.877Z,1017.16
2022-10-11T04:01:01.888Z,1017.15
2022-10-11T04:02:01.996Z,1017.13
2022-10-11T04:03:01.918Z,1017.18
2022-10-11T04:04:01.928Z,1017.19
2022-10-11T04:05:01.948Z,1017.22
2022-10-11T04:06:02.230Z,1017.25
2022-10-11T04:07:01.970Z,1017.21
2022-10-11T04:08:01.987Z,1017.24
2022-10-11T04:09:01.995Z,1017.24
2022-10-11T04:10:02.008Z,1017.25
2022-10-11T04:11:02.024Z,1017.29
2022-10-11T04:12:02.037Z,1017.27
2022-10-11T04:13:02.052Z,1017.28
2022-10-11T04:14:02.059Z,1017.26
2022-10-11T04:15:02.073Z,1017.34
2022-10-11T04:16:02.569Z,1017.37
2022-10-11T04:17:02.099Z,1017.41
2022-10-11T04:18:02.112Z,1017.40
2022-10-11T04:19:02.125Z,1017.41
2022-10-11T04:20:02.138Z,1017.39
2022-10-11T04:21:02.151Z,1017.44
2022-10-11T04:22:02.163Z,1017.42
2022-10-11T04:23:02.177Z,1017.45
2022-10-11T04:24:02.189Z,1017.43
2022-10-11T04:25:02.201Z,1017.49
2022-10-11T04:26:02.438Z,1017.45
2022-10-11T04:27:02.229Z,1017.48
2022-10-11T04:28:02.245Z,1017.48
2022-10-11T04:29:02.254Z,1017.49
2022-10-11T04:30:02.273Z,1017.49
2022-10-11T04:31:02.282Z,1017.49
2022-10-11T04:32:02.293Z,1017.52
2022-10-11T04:33:02.307Z,1017.50
2022-10-11T04:34:02.321Z,1017.53
2022-10-11T04:35:03.364Z,1017.53
2022-10-11T04:36:02.729Z,1017.51
2022-10-11T04:37:02.360Z,1017.58
2022-10-11T04:38:02.371Z,1017.57
2022-10-11T04:39:02.385Z,1017.54
2022-10-11T04:40:02.397Z,1017.60
2022-10-11T04:41:02.408Z,1017.60
2022-10-11T04:42:02.424Z,1017.64
2022-10-11T04:43:02.438Z,1017.61
2022-10-11T04:44:02.450Z,1017.65
2022-10-11T04:45:02.464Z,1017.62
2022-10-11T04:46:02.475Z,1017.60
2022-10-11T04:47:02.487Z,1017.64
2022-10-11T04:48:02.504Z,1017.63
2022-10-11T04:49:02.512Z,1017.64
2022-10-11T04:50:02.532Z,1017.66
2022-10-11T04:51:02.539Z,1017.63
2022-10-11T04:52:02.550Z,1017.66
2022-10-11T04:53:02.563Z,1017.69
2022-10-11T04:54:02.578Z,1017.73
2022-10-11T04:55:02.594Z,1017.71
2022-10-11T04:56:02.802Z,1017.69
2022-10-11T04:57:02.616Z,1017.70
2022-10-11T04:58:02.633Z,1017.75
2022-10-11T04:59:02.641Z,1017.74
2022-10-11T05:00:02.656Z,1017.72
2022-10-11T05:01:02.667Z,1017.77
2022-10-11T05:02:02.782Z,1017.77
2022-10-11T05:03:02.693Z,1017.76
2022-10-11T05:04:02.704Z,1017.81
2022-10-11T05:05:02.719Z,1017.80
2022-10-11T05:06:05.668Z,1017.85
2022-10-11T05:07:02.744Z,1017.87
2022-10-11T05:08:02.761Z,1017.88
2022-10-11T05:09:02.771Z,1017.88
2022-10-11T05:10:02.784Z,1017.89
2022-10-11T05:11:02.797Z,1017.90
2022-10-11T05:12:02.808Z,1017.90
2022-10-11T05:13:02.821Z,1017.92
2022-10-11T05:14:02.835Z,1017.92
2022-10-11T05:15:02.849Z,1017.93
2022-10-11T05:16:04.883Z,1017.92
2022-10-11T05:17:02.874Z,1017.95
2022-10-11T05:18:02.936Z,1017.95
2022-10-11T05:19:02.898Z,1017.96
2022-10-11T05:20:02.911Z,1017.97
2022-10-11T05:21:02.926Z,1018.01
2022-10-11T05:22:02.940Z,1017.98
2022-10-11T05:23:02.953Z,1018.02
2022-10-11T05:24:02.963Z,1018.02
2022-10-11T05:25:02.995Z,1018.03
2022-10-11T05:26:03.234Z,1018.06
2022-10-11T05:27:03.664Z,1018.09
2022-10-11T05:28:03.011Z,1018.08
2022-10-11T05:29:03.105Z,1018.11
2022-10-11T05:30:03.052Z,1018.10
2022-10-11T05:31:03.067Z,1018.15
2022-10-11T05:32:03.065Z,1018.13
2022-10-11T05:33:03.079Z,1018.13
2022-10-11T05:34:03.089Z,1018.19
2022-10-11T05:35:03.105Z,1018.21
2022-10-11T05:36:03.502Z,1018.21
2022-10-11T05:37:03.130Z,1018.24
2022-10-11T05:38:03.143Z,1018.22
2022-10-11T05:39:03.154Z,1018.28
2022-10-11T05:40:03.163Z,1018.28
2022-10-11T05:41:03.180Z,1018.24
2022-10-11T05:42:06.516Z,1018.27
2022-10-11T05:43:03.204Z,1018.28
2022-10-11T05:44:03.217Z,1018.30
2022-10-11T05:45:03.230Z,1018.33
2022-10-11T05:46:03.643Z,1018.31
2022-10-11T05:47:03.255Z,1018.33
2022-10-11T05:48:03.268Z,1018.33
2022-10-11T05:49:03.281Z,1018.35
2022-10-11T05:50:03.295Z,1018.34
2022-10-11T05:51:03.312Z,1018.32
2022-10-11T05:52:03.325Z,1018.41
2022-10-11T05:53:03.332Z,1018.37
2022-10-11T05:54:03.348Z,1018.38
2022-10-11T05:55:03.364Z,1018.38
2022-10-11T05:56:03.520Z,1018.38
2022-10-11T05:57:03.384Z,1018.42
2022-10-11T05:58:03.399Z,1018.41
2022-10-11T05:59:03.412Z,1018.44
2022-10-11T06:00:03.423Z,1018.41
2022-10-11T06:01:03.522Z,1018.46
2022-10-11T06:02:03.449Z,1018.49
2022-10-11T06:03:03.462Z,1018.53
2022-10-11T06:04:03.474Z,1018.55
2022-10-11T06:05:03.491Z,1018.58
2022-10-11T06:06:03.564Z,1018.58
2022-10-11T06:07:03.514Z,1018.60
2022-10-11T06:08:03.528Z,1018.60
2022-10-11T06:09:03.539Z,1018.62
2022-10-11T06:10:03.551Z,1018.63
2022-10-11T06:11:03.565Z,1018.60
2022-10-11T06:12:03.577Z,1018.62
2022-10-11T06:13:03.589Z,1018.69
2022-10-11T06:14:03.603Z,1018.64
2022-10-11T06:15:03.617Z,1018.65
2022-10-11T06:16:03.912Z,1018.66
2022-10-11T06:17:03.643Z,1018.61
2022-10-11T06:18:03.656Z,1018.64
2022-10-11T06:19:03.672Z,1018.67
2022-10-11T06:20:03.680Z,1018.69
2022-10-11T06:21:03.693Z,1018.70
2022-10-11T06:22:03.706Z,1018.73
2022-10-11T06:23:03.719Z,1018.71
2022-10-11T06:24:03.735Z,1018.75
2022-10-11T06:25:03.746Z,1018.76
2022-10-11T06:26:04.046Z,1018.79
2022-10-11T06:27:03.773Z,1018.77
2022-10-11T06:28:03.784Z,1018.83
2022-10-11T06:29:03.800Z,1018.86
2022-10-11T06:30:03.811Z,1018.87
2022-10-11T06:31:03.825Z,1018.88
2022-10-11T06:32:03.837Z,1018.88
2022-10-11T06:33:05.016Z,1018.89
2022-10-11T06:34:03.866Z,1018.93
2022-10-11T06:35:03.880Z,1018.88
2022-10-11T06:36:04.118Z,1018.93
2022-10-11T06:37:03.903Z,1018.97
2022-10-11T06:38:03.916Z,1018.95
2022-10-11T06:39:03.929Z,1018.93
2022-10-11T06:40:03.942Z,1018.98
2022-10-11T06:41:03.955Z,1018.99
2022-10-11T06:42:03.971Z,1019.00
2022-10-11T06:43:03.990Z,1019.02
2022-10-11T06:44:03.996Z,1018.97
2022-10-11T06:45:04.008Z,1019.00
2022-10-11T06:46:04.279Z,1019.00
2022-10-11T06:47:04.035Z,1019.04
2022-10-11T06:48:04.050Z,1019.06
2022-10-11T06:49:04.064Z,1019.11
2022-10-11T06:50:04.077Z,1019.09
2022-10-11T06:51:04.088Z,1019.11
2022-10-11T06:52:04.106Z,1019.15
2022-10-11T06:53:04.115Z,1019.13
2022-10-11T06:54:04.129Z,1019.12
2022-10-11T06:55:04.141Z,1019.11
2022-10-11T06:56:04.309Z,1019.17
2022-10-11T06:57:04.170Z,1019.19
2022-10-11T06:58:04.183Z,1019.23
2022-10-11T06:59:04.195Z,1019.22
2022-10-11T07:00:05.559Z,1019.21
2022-10-11T07:01:04.266Z,1019.26
2022-10-11T07:02:04.240Z,1019.26
2022-10-11T07:03:04.249Z,1019.27
2022-10-11T07:04:04.265Z,1019.27
2022-10-11T07:05:04.276Z,1019.23
2022-10-11T07:06:04.501Z,1019.26
2022-10-11T07:07:04.306Z,1019.30
2022-10-11T07:08:04.318Z,1019.28
2022-10-11T07:09:04.331Z,1019.31
2022-10-11T07:10:04.344Z,1019.35
2022-10-11T07:11:04.357Z,1019.32
2022-10-11T07:12:04.370Z,1019.30
2022-10-11T07:13:04.389Z,1019.38
2022-10-11T07:14:04.398Z,1019.37
2022-10-11T07:15:04.412Z,1019.44
2022-10-11T07:16:04.730Z,1019.45
2022-10-11T07:17:04.439Z,1019.47
2022-10-11T07:18:04.454Z,1019.45
2022-10-11T07:19:04.479Z,1019.48
2022-10-11T07:20:04.491Z,1019.54
2022-10-11T07:21:04.498Z,1019.51
2022-10-11T07:22:04.509Z,1019.54
2022-10-11T07:23:04.522Z,1019.52
2022-10-11T07:24:04.533Z,1019.49
2022-10-11T07:25:04.548Z,1019.55
2022-10-11T07:26:04.915Z,1019.55
2022-10-11T07:27:04.579Z,1019.63
2022-10-11T07:28:04.588Z,1019.62
2022-10-11T07:29:04.668Z,1019.60
2022-10-11T07:30:04.619Z,1019.63
2022-10-11T07:31:04.634Z,1019.64
2022-10-11T07:32:04.647Z,1019.67
2022-10-11T07:33:04.658Z,1019.68
2022-10-11T07:34:04.683Z,1019.69
2022-10-11T07:35:04.686Z,1019.68
2022-10-11T07:36:05.065Z,1019.69
2022-10-11T07:37:04.715Z,1019.69
2022-10-11T07:38:04.729Z,1019.71
2022-10-11T07:39:04.742Z,1019.71
2022-10-11T07:40:04.765Z,1019.74
2022-10-11T07:41:04.769Z,1019.75
2022-10-11T07:42:04.788Z,1019.75
2022-10-11T07:43:04.800Z,1019.74
2022-10-11T07:44:04.814Z,1019.76
2022-10-11T07:45:04.827Z,1019.78
2022-10-11T07:46:05.373Z,1019.83
2022-10-11T07:47:08.948Z,1019.85
2022-10-11T07:48:04.872Z,1019.87
2022-10-11T07:49:04.905Z,1019.85
2022-10-11T07:50:04.907Z,1019.82
2022-10-11T07:51:04.913Z,1019.80
2022-10-11T07:52:04.924Z,1019.82
2022-10-11T07:53:04.948Z,1019.84
2022-10-11T07:54:07.208Z,1019.85
2022-10-11T07:55:04.968Z,1019.82
2022-10-11T07:56:05.135Z,1019.83
2022-10-11T07:57:04.998Z,1019.81
2022-10-11T07:58:05.009Z,1019.84
2022-10-11T07:59:05.035Z,1019.87
2022-10-11T08:00:05.041Z,1019.81
2022-10-11T08:01:05.078Z,1019.89
2022-10-11T08:02:05.068Z,1019.85
2022-10-11T08:03:05.082Z,1019.88
2022-10-11T08:04:05.099Z,1019.87
2022-10-11T08:05:05.114Z,1019.93
2022-10-11T08:06:05.374Z,1019.88
2022-10-11T08:07:05.139Z,1019.93
2022-10-11T08:08:05.159Z,1019.93
2022-10-11T08:09:05.168Z,1019.96
2022-10-11T08:10:05.186Z,1019.95
2022-10-11T08:11:05.196Z,1019.99
2022-10-11T08:12:05.209Z,1019.89
2022-10-11T08:13:05.227Z,1019.94
2022-10-11T08:14:05.239Z,1020.00
2022-10-11T08:15:05.256Z,1019.95
2022-10-11T08:16:05.526Z,1019.95
2022-10-11T08:17:05.284Z,1019.94
2022-10-11T08:18:05.299Z,1019.99
2022-10-11T08:19:05.312Z,1019.93
2022-10-11T08:20:05.350Z,1019.97
2022-10-11T08:21:05.342Z,1019.93
2022-10-11T08:22:05.357Z,1019.91
2022-10-11T08:23:05.387Z,1019.93
2022-10-11T08:24:05.385Z,1019.91
2022-10-11T08:25:05.398Z,1019.95
2022-10-11T08:26:05.658Z,1020.00
2022-10-11T08:27:05.428Z,1019.96
2022-10-11T08:28:05.455Z,1020.01
2022-10-11T08:29:05.528Z,1020.00
2022-10-11T08:30:05.485Z,1020.02
2022-10-11T08:31:05.495Z,1020.04
2022-10-11T08:32:05.504Z,1020.03
2022-10-11T08:33:08.608Z,1020.03
2022-10-11T08:34:05.535Z,1020.01
2022-10-11T08:35:05.549Z,1020.02
2022-10-11T08:36:05.921Z,1020.03
2022-10-11T08:37:05.577Z,1020.08
2022-10-11T08:38:05.606Z,1020.06
2022-10-11T08:39:05.608Z,1020.06
2022-10-11T08:40:05.625Z,1020.08
2022-10-11T08:41:05.638Z,1020.09
2022-10-11T08:42:05.652Z,1020.06
2022-10-11T08:43:05.670Z,1020.06
2022-10-11T08:44:05.686Z,1020.09
2022-10-11T08:45:11.095Z,1020.06
2022-10-11T08:46:05.941Z,1020.08
2022-10-11T08:47:05.732Z,1020.10
2022-10-11T08:48:05.744Z,1020.06
2022-10-11T08:49:05.772Z,1020.05
2022-10-11T08:50:05.775Z,1020.09
2022-10-11T08:51:05.798Z,1020.07
2022-10-11T08:52:05.804Z,1020.12
2022-10-11T08:53:05.820Z,1020.11
2022-10-11T08:54:07.791Z,1020.08
2022-10-11T08:55:05.851Z,1020.05
2022-10-11T08:56:06.093Z,1020.10
2022-10-11T08:57:05.880Z,1020.13
2022-10-11T08:58:05.943Z,1020.13
2022-10-11T08:59:05.921Z,1020.15
2022-10-11T09:00:05.928Z,1020.13
2022-10-11T09:01:06.036Z,1020.11
2022-10-11T09:02:05.963Z,1020.18
2022-10-11T09:03:09.716Z,1020.20
2022-10-11T09:04:05.990Z,1020.21
2022-10-11T09:05:06.003Z,1020.15
2022-10-11T09:06:06.229Z,1020.22
2022-10-11T09:07:06.035Z,1020.23
2022-10-11T09:08:06.051Z,1020.15
2022-10-11T09:09:06.070Z,1020.25
2022-10-11T09:10:06.082Z,1020.22
2022-10-11T09:11:06.097Z,1020.23
2022-10-11T09:12:06.120Z,1020.23
2022-10-11T09:13:06.127Z,1020.23
2022-10-11T09:14:06.150Z,1020.26
2022-10-11T09:15:06.161Z,1020.27
2022-10-11T09:16:06.623Z,1020.26
2022-10-11T09:17:06.189Z,1020.28
2022-10-11T09:18:06.207Z,1020.22
2022-10-11T09:19:06.225Z,1020.24
2022-10-11T09:20:06.239Z,1020.24
2022-10-11T09:21:06.255Z,1020.26
2022-10-11T09:22:06.272Z,1020.24
2022-10-11T09:23:06.289Z,1020.23
2022-10-11T09:24:06.302Z,1020.21
2022-10-11T09:25:06.318Z,1020.20
2022-10-11T09:26:06.493Z,1020.22
2022-10-11T09:27:06.353Z,1020.23
2022-10-11T09:28:06.367Z,1020.25
2022-10-11T09:29:06.473Z,1020.25
2022-10-11T09:30:06.402Z,1020.23
2022-10-11T09:31:06.424Z,1020.27
2022-10-11T09:32:06.429Z,1020.25
2022-10-11T09:33:06.448Z,1020.28
2022-10-11T09:34:06.462Z,1020.25
2022-10-11T09:35:06.482Z,1020.26
2022-10-11T09:36:06.706Z,1020.25
2022-10-11T09:37:06.513Z,1020.28
2022-10-11T09:38:06.528Z,1020.28
2022-10-11T09:39:06.904Z,1020.26
2022-10-11T09:40:06.561Z,1020.27
2022-10-11T09:41:06.576Z,1020.25
2022-10-11T09:42:06.594Z,1020.23
2022-10-11T09:43:06.613Z,1020.26
2022-10-11T09:44:06.631Z,1020.26
2022-10-11T09:45:06.643Z,1020.27
2022-10-11T09:46:07.045Z,1020.25
2022-10-11T09:47:06.678Z,1020.26
2022-10-11T09:48:06.696Z,1020.26
2022-10-11T09:49:06.710Z,1020.23
2022-10-11T09:50:06.729Z,1020.24
2022-10-11T09:51:06.743Z,1020.23
2022-10-11T09:52:06.760Z,1020.31
2022-10-11T09:53:06.776Z,1020.28
2022-10-11T09:54:06.804Z,1020.29
2022-10-11T09:55:06.818Z,1020.27
2022-10-11T09:56:07.122Z,1020.26
2022-10-11T09:57:06.845Z,1020.23
2022-10-11T09:58:06.873Z,1020.25
2022-10-11T09:59:06.891Z,1020.26
2022-10-11T10:00:06.897Z,1020.29
2022-10-11T10:01:08.274Z,1020.26
2022-10-11T10:02:07.030Z,1020.28
2022-10-11T10:03:06.946Z,1020.26
2022-10-11T10:04:06.960Z,1020.26
2022-10-11T10:05:06.981Z,1020.27
2022-10-11T10:06:07.447Z,1020.32
2022-10-11T10:07:07.013Z,1020.33
2022-10-11T10:08:07.029Z,1020.30
2022-10-11T10:09:07.048Z,1020.29
2022-10-11T10:10:07.065Z,1020.32
2022-10-11T10:11:07.082Z,1020.36
2022-10-11T10:12:07.098Z,1020.34
2022-10-11T10:13:07.115Z,1020.38
2022-10-11T10:14:07.133Z,1020.36
2022-10-11T10:15:07.163Z,1020.37
2022-10-11T10:16:07.528Z,1020.38
2022-10-11T10:17:07.187Z,1020.35
2022-10-11T10:18:07.208Z,1020.37
2022-10-11T10:19:07.223Z,1020.36
2022-10-11T10:20:07.237Z,1020.40
2022-10-11T10:21:07.288Z,1020.40
2022-10-11T10:22:07.273Z,1020.37
2022-10-11T10:23:07.311Z,1020.42
2022-10-11T10:24:07.313Z,1020.42
2022-10-11T10:25:07.323Z,1020.40
2022-10-11T10:26:07.774Z,1020.44
2022-10-11T10:27:07.358Z,1020.45
2022-10-11T10:28:07.408Z,1020.45
2022-10-11T10:29:07.397Z,1020.41
2022-10-11T10:30:07.416Z,1020.40
2022-10-11T10:31:07.433Z,1020.40
2022-10-11T10:32:14.235Z,1020.41
2022-10-11T10:33:07.466Z,1020.45
2022-10-11T10:34:07.483Z,1020.49
2022-10-11T10:35:07.504Z,1020.54
2022-10-11T10:36:08.109Z,1020.51
2022-10-11T10:37:07.538Z,1020.51
2022-10-11T10:38:07.556Z,1020.52
2022-10-11T10:39:07.573Z,1020.51
2022-10-11T10:40:07.589Z,1020.49
2022-10-11T10:41:07.608Z,1020.48
2022-10-11T10:42:07.628Z,1020.52
2022-10-11T10:43:07.646Z,1020.57
2022-10-11T10:44:07.664Z,1020.53
2022-10-11T10:45:12.131Z,1020.51
2022-10-11T10:46:08.021Z,1020.54
2022-10-11T10:47:07.717Z,1020.55
2022-10-11T10:48:07.734Z,1020.55
2022-10-11T10:50:07.772Z,1020.51
2022-10-11T10:51:10.431Z,1020.54
2022-10-11T10:52:07.810Z,1020.53
2022-10-11T10:53:07.828Z,1020.57
2022-10-11T10:54:07.848Z,1020.54
2022-10-11T10:55:07.865Z,1020.54
2022-10-11T10:56:08.070Z,1020.54
2022-10-11T10:57:07.902Z,1020.52
2022-10-11T10:58:07.923Z,1020.57
2022-10-11T10:59:07.941Z,1020.55
2022-10-11T11:00:07.968Z,1020.57
2022-10-11T11:01:07.980Z,1020.57
2022-10-11T11:02:28.153Z,1020.57
2022-10-11T11:03:08.018Z,1020.57
2022-10-11T11:04:08.039Z,1020.63
2022-10-11T11:05:08.056Z,1020.60
2022-10-11T11:06:08.345Z,1020.59
2022-10-11T11:07:08.100Z,1020.59
2022-10-11T11:08:08.118Z,1020.60
2022-10-11T11:09:08.134Z,1020.57
2022-10-11T11:10:08.154Z,1020.52
2022-10-11T11:11:08.174Z,1020.54
2022-10-11T11:12:08.195Z,1020.57
2022-10-11T11:13:08.215Z,1020.57
2022-10-11T11:14:08.235Z,1020.55
2022-10-11T11:15:08.252Z,1020.52
2022-10-11T11:16:08.438Z,1020.44
2022-10-11T11:17:08.292Z,1020.50
2022-10-11T11:18:08.312Z,1020.47
2022-10-11T11:19:08.330Z,1020.49
2022-10-11T11:20:08.349Z,1020.47
2022-10-11T11:21:08.370Z,1020.48
2022-10-11T11:22:08.392Z,1020.50
2022-10-11T11:23:08.411Z,1020.52
2022-10-11T11:24:08.427Z,1020.56
2022-10-11T11:25:08.450Z,1020.61
2022-10-11T11:26:08.757Z,1020.56
2022-10-11T11:27:08.488Z,1020.49
2022-10-11T11:28:08.581Z,1020.45
2022-10-11T11:29:08.527Z,1020.46
2022-10-11T11:30:08.549Z,1020.42
2022-10-11T11:31:08.897Z,1020.43
2022-10-11T11:32:08.589Z,1020.43
2022-10-11T11:33:08.609Z,1020.37
2022-10-11T11:34:08.628Z,1020.44
2022-10-11T11:35:08.648Z,1020.41
2022-10-11T11:36:08.870Z,1020.38
2022-10-11T11:37:08.688Z,1020.43
2022-10-11T11:38:08.708Z,1020.40
2022-10-11T11:39:08.739Z,1020.42
2022-10-11T11:40:08.755Z,1020.45
2022-10-11T11:41:09.059Z,1020.49
2022-10-11T11:42:08.787Z,1020.44
2022-10-11T11:43:08.816Z,1020.48
2022-10-11T11:44:08.828Z,1020.45
2022-10-11T11:45:08.848Z,1020.52
2022-10-11T11:46:08.866Z,1020.47
2022-10-11T11:47:08.891Z,1020.46
2022-10-11T11:48:08.908Z,1020.46
2022-10-11T11:49:12.838Z,1020.46
2022-10-11T11:50:08.950Z,1020.38
2022-10-11T11:51:09.118Z,1020.42
2022-10-11T11:52:08.985Z,1020.42
2022-10-11T11:53:09.005Z,1020.47
2022-10-11T11:54:09.024Z,1020.49
2022-10-11T11:55:09.044Z,1020.54
2022-10-11T11:56:09.062Z,1020.53
2022-10-11T11:57:09.085Z,1020.47
2022-10-11T11:58:09.104Z,1020.50
2022-10-11T11:59:09.124Z,1020.48
2022-10-11T12:00:09.149Z,1020.42
2022-10-11T12:01:09.352Z,1020.43
2022-10-11T12:02:09.242Z,1020.46
2022-10-11T12:03:09.201Z,1020.47
2022-10-11T12:04:09.220Z,1020.46
2022-10-11T12:05:09.238Z,1020.39
2022-10-11T12:06:09.261Z,1020.45
2022-10-11T12:07:16.233Z,1020.37